createdAt,value
2022-08-29T00:00:58.673Z,16.30
2022-08-29T00:02:20.979Z,16.30
2022-08-29T00:03:43.233Z,16.30
2022-08-29T00:05:06.489Z,16.30
2022-08-29T00:06:28.875Z,16.30
2022-08-29T00:07:51.065Z,16.30
2022-08-29T00:09:13.105Z,16.30
2022-08-29T00:10:38.320Z,16.30
2022-08-29T00:12:00.583Z,16.40
2022-08-29T00:13:23.162Z,16.30
2022-08-29T00:14:45.306Z,16.30
2022-08-29T00:16:08.827Z,16.30
2022-08-29T00:17:31.191Z,16.30
2022-08-29T00:18:53.263Z,16.30
2022-08-29T00:20:20.671Z,16.30
2022-08-29T00:21:44.940Z,16.30
2022-08-29T00:23:09.531Z,16.30
2022-08-29T00:24:31.669Z,16.30
2022-08-29T00:25:53.755Z,16.20
2022-08-29T00:27:15.845Z,16.20
2022-08-29T00:28:38.197Z,16.20
2022-08-29T00:30:00.857Z,16.20
2022-08-29T00:31:23.075Z,16.20
2022-08-29T00:32:45.315Z,16.20
2022-08-29T00:34:07.953Z,16.30
2022-08-29T00:35:34.433Z,16.20
2022-08-29T00:36:57.653Z,16.20
2022-08-29T00:38:20.049Z,16.20
2022-08-29T00:39:42.115Z,16.20
2022-08-29T00:41:05.240Z,16.30
2022-08-29T00:42:27.415Z,16.20
2022-08-29T00:43:49.619Z,16.20
2022-08-29T00:45:13.051Z,16.20
2022-08-29T00:46:40.559Z,16.10
2022-08-29T00:48:07.590Z,16.10
2022-08-29T00:49:41.126Z,16.10
2022-08-29T00:51:07.299Z,16.10
2022-08-29T00:52:39.697Z,16.00
2022-08-29T00:54:06.299Z,16.10
2022-08-29T00:55:32.195Z,16.10
2022-08-29T00:56:55.025Z,16.20
2022-08-29T00:58:30.753Z,16.20
2022-08-29T00:59:53.159Z,16.30
2022-08-29T01:01:15.830Z,16.30
2022-08-29T01:02:40.705Z,16.40
2022-08-29T01:04:03.533Z,16.40
2022-08-29T01:05:27.427Z,16.40
2022-08-29T01:06:49.580Z,16.50
2022-08-29T01:08:12.053Z,16.50
2022-08-29T01:09:37.270Z,16.60
2022-08-29T01:11:17.826Z,16.60
2022-08-29T01:12:39.927Z,16.60
2022-08-29T01:14:04.457Z,16.70
2022-08-29T01:15:27.614Z,16.70
2022-08-29T01:16:52.563Z,16.70
2022-08-29T01:18:16.901Z,16.80
2022-08-29T01:20:00.422Z,16.80
2022-08-29T01:21:40.199Z,16.80
2022-08-29T01:23:26.979Z,16.90
2022-08-29T01:24:52.706Z,16.90
2022-08-29T01:26:14.909Z,16.90
2022-08-29T01:27:40.045Z,16.90
2022-08-29T01:29:02.708Z,16.90
2022-08-29T01:30:24.999Z,16.90
2022-08-29T01:31:57.200Z,16.90
2022-08-29T01:33:19.887Z,16.90
2022-08-29T01:34:42.504Z,16.90
2022-08-29T01:36:05.433Z,16.90
2022-08-29T01:37:32.477Z,16.90
2022-08-29T01:38:54.636Z,16.80
2022-08-29T01:40:16.844Z,16.80
2022-08-29T01:41:39.118Z,16.80
2022-08-29T01:43:01.266Z,16.70
2022-08-29T01:44:25.511Z,16.70
2022-08-29T01:45:47.657Z,16.70
2022-08-29T01:47:11.317Z,16.60
2022-08-29T01:48:33.410Z,16.60
2022-08-29T01:49:55.611Z,16.60
2022-08-29T01:51:18.083Z,16.60
2022-08-29T01:52:41.799Z,16.60
2022-08-29T01:54:07.290Z,16.50
2022-08-29T01:55:29.365Z,16.50
2022-08-29T01:56:53.184Z,16.50
2022-08-29T01:58:16.495Z,16.50
2022-08-29T01:59:40.188Z,16.50
2022-08-29T02:01:02.546Z,16.40
2022-08-29T02:02:28.021Z,16.40
2022-08-29T02:03:50.350Z,16.40
2022-08-29T02:05:12.437Z,16.40
2022-08-29T02:06:35.815Z,16.40
2022-08-29T02:07:58.269Z,16.40
2022-08-29T02:09:20.427Z,16.30
2022-08-29T02:10:42.518Z,16.30
2022-08-29T02:12:07.278Z,16.30
2022-08-29T02:13:29.545Z,16.30
2022-08-29T02:14:51.720Z,16.30
2022-08-29T02:16:14.465Z,16.20
2022-08-29T02:17:37.759Z,16.20
2022-08-29T02:19:00.125Z,16.20
2022-08-29T02:20:22.259Z,16.20
2022-08-29T02:21:44.822Z,16.20
2022-08-29T02:23:21.898Z,16.10
2022-08-29T02:24:48.967Z,16.10
2022-08-29T02:26:11.053Z,16.10
2022-08-29T02:27:33.146Z,16.20
2022-08-29T02:28:55.318Z,16.20
2022-08-29T02:30:17.407Z,16.20
2022-08-29T02:31:40.736Z,16.20
2022-08-29T02:33:04.977Z,16.30
2022-08-29T02:34:30.907Z,16.30
2022-08-29T02:35:53.376Z,16.30
2022-08-29T02:37:15.978Z,16.30
2022-08-29T02:38:38.395Z,16.30
2022-08-29T02:40:00.527Z,16.30
2022-08-29T02:41:22.709Z,16.30
2022-08-29T02:42:44.754Z,16.30
2022-08-29T02:44:07.327Z,16.20
2022-08-29T02:45:30.136Z,16.20
2022-08-29T02:46:52.377Z,16.20
2022-08-29T02:48:15.982Z,16.20
2022-08-29T02:49:39.535Z,16.20
2022-08-29T02:51:01.627Z,16.30
2022-08-29T02:52:23.671Z,16.30
2022-08-29T02:53:45.762Z,16.30
2022-08-29T02:55:11.760Z,16.30
2022-08-29T02:56:34.058Z,16.30
2022-08-29T02:57:56.207Z,16.30
2022-08-29T02:59:18.664Z,16.30
2022-08-29T03:00:42.118Z,16.30
2022-08-29T03:02:04.658Z,16.30
2022-08-29T03:03:27.913Z,16.30
2022-08-29T03:04:49.993Z,16.30
2022-08-29T03:06:12.865Z,16.30
2022-08-29T03:07:35.029Z,16.40
2022-08-29T03:08:57.118Z,16.40
2022-08-29T03:10:20.166Z,16.50
2022-08-29T03:11:42.227Z,16.50
2022-08-29T03:13:04.861Z,16.60
2022-08-29T03:14:27.046Z,16.60
2022-08-29T03:15:49.310Z,16.70
2022-08-29T03:17:11.903Z,16.70
2022-08-29T03:18:34.128Z,16.70
2022-08-29T03:19:58.466Z,16.70
2022-08-29T03:21:23.855Z,16.80
2022-08-29T03:22:46.517Z,16.80
2022-08-29T03:24:08.681Z,16.80
2022-08-29T03:25:30.841Z,16.90
2022-08-29T03:26:54.612Z,16.90
2022-08-29T03:28:18.942Z,16.90
2022-08-29T03:29:40.997Z,17.00
2022-08-29T03:31:03.286Z,17.00
2022-08-29T03:32:26.451Z,17.00
2022-08-29T03:33:48.683Z,17.10
2022-08-29T03:35:12.103Z,17.00
2022-08-29T03:36:34.437Z,17.10
2022-08-29T03:37:56.595Z,17.10
2022-08-29T03:39:18.991Z,17.00
2022-08-29T03:40:42.750Z,17.10
2022-08-29T03:42:06.635Z,17.00
2022-08-29T03:43:28.747Z,17.00
2022-08-29T03:44:50.825Z,17.00
2022-08-29T03:46:12.890Z,16.90
2022-08-29T03:47:35.067Z,16.90
2022-08-29T03:48:57.152Z,16.90
2022-08-29T03:50:20.894Z,16.90
2022-08-29T03:51:43.079Z,16.90
2022-08-29T03:53:05.177Z,16.90
2022-08-29T03:54:27.732Z,16.90
2022-08-29T03:55:49.906Z,16.90
2022-08-29T03:57:12.030Z,16.90
2022-08-29T03:58:34.617Z,17.00
2022-08-29T03:59:57.942Z,17.00
2022-08-29T04:01:22.498Z,17.00
2022-08-29T04:02:46.847Z,17.00
2022-08-29T04:04:29.022Z,17.00
2022-08-29T04:05:51.242Z,17.00
2022-08-29T04:07:17.753Z,17.00
2022-08-29T04:08:39.878Z,17.00
2022-08-29T04:10:08.154Z,17.00
2022-08-29T04:11:30.260Z,17.00
2022-08-29T04:12:54.691Z,16.90
2022-08-29T04:14:16.826Z,16.90
2022-08-29T04:15:42.521Z,16.90
2022-08-29T04:17:04.804Z,17.00
2022-08-29T04:18:26.885Z,17.00
2022-08-29T04:19:48.946Z,17.00
2022-08-29T04:21:11.181Z,17.00
2022-08-29T04:22:36.344Z,17.00
2022-08-29T04:23:59.019Z,17.00
2022-08-29T04:25:22.385Z,17.00
2022-08-29T04:26:44.468Z,17.00
2022-08-29T04:28:12.585Z,17.00
2022-08-29T04:29:35.224Z,17.00
2022-08-29T04:30:57.763Z,17.00
2022-08-29T04:32:20.248Z,17.00
2022-08-29T04:33:42.321Z,17.00
2022-08-29T04:35:05.025Z,17.00
2022-08-29T04:36:28.190Z,17.00
2022-08-29T04:37:50.708Z,17.00
2022-08-29T04:39:13.582Z,17.00
2022-08-29T04:40:37.161Z,17.00
2022-08-29T04:41:59.278Z,17.00
2022-08-29T04:43:21.357Z,17.10
2022-08-29T04:44:43.872Z,17.10
2022-08-29T04:46:06.137Z,17.10
2022-08-29T04:47:31.165Z,17.10
2022-08-29T04:48:53.808Z,17.10
2022-08-29T04:50:18.815Z,17.20
2022-08-29T04:51:41.134Z,17.20
2022-08-29T04:53:03.254Z,17.20
2022-08-29T04:54:25.330Z,17.20
2022-08-29T04:55:57.255Z,17.30
2022-08-29T04:57:19.772Z,17.20
2022-08-29T04:58:44.206Z,17.20
2022-08-29T05:00:13.815Z,17.20
2022-08-29T05:01:35.907Z,17.30
2022-08-29T05:02:58.570Z,17.30
2022-08-29T05:04:20.666Z,17.30
2022-08-29T05:05:42.706Z,17.30
2022-08-29T05:07:05.066Z,17.40
2022-08-29T05:08:27.181Z,17.40
2022-08-29T05:10:01.034Z,17.40
2022-08-29T05:11:23.245Z,17.50
2022-08-29T05:12:46.252Z,17.50
2022-08-29T05:14:08.432Z,17.50
2022-08-29T05:15:31.513Z,17.50
2022-08-29T05:16:53.628Z,17.50
2022-08-29T05:18:20.430Z,17.60
2022-08-29T05:19:45.281Z,17.60
2022-08-29T05:21:07.649Z,17.60
2022-08-29T05:22:29.696Z,17.60
2022-08-29T05:23:51.862Z,17.60
2022-08-29T05:25:18.000Z,17.60
2022-08-29T05:26:44.742Z,17.70
2022-08-29T05:28:06.940Z,17.60
2022-08-29T05:29:29.242Z,17.60
2022-08-29T05:30:51.470Z,17.70
2022-08-29T05:32:18.845Z,17.70
2022-08-29T05:33:41.861Z,17.70
2022-08-29T05:35:04.604Z,17.70
2022-08-29T05:36:27.098Z,17.80
2022-08-29T05:37:49.781Z,17.80
2022-08-29T05:39:11.822Z,17.90
2022-08-29T05:40:36.677Z,18.00
2022-08-29T05:41:59.700Z,18.00
2022-08-29T05:43:21.828Z,18.00
2022-08-29T05:44:44.372Z,18.10
2022-08-29T05:46:10.032Z,18.10
2022-08-29T05:47:32.477Z,18.10
2022-08-29T05:48:54.517Z,18.10
2022-08-29T05:50:17.074Z,18.20
2022-08-29T05:51:39.962Z,18.20
2022-08-29T05:53:02.048Z,18.10
2022-08-29T05:54:25.434Z,18.20
2022-08-29T05:55:53.248Z,18.20
2022-08-29T05:57:19.346Z,18.20
2022-08-29T05:58:41.672Z,18.30
2022-08-29T06:00:06.327Z,18.20
2022-08-29T06:01:33.939Z,18.30
2022-08-29T06:02:56.183Z,18.40
2022-08-29T06:04:19.019Z,18.50
2022-08-29T06:05:41.876Z,18.60
2022-08-29T06:07:06.797Z,18.70
2022-08-29T06:08:28.834Z,18.70
2022-08-29T06:09:52.925Z,18.70
2022-08-29T06:11:19.901Z,18.70
2022-08-29T06:12:41.960Z,18.80
2022-08-29T06:14:04.800Z,18.80
2022-08-29T06:15:28.536Z,18.90
2022-08-29T06:16:51.547Z,19.00
2022-08-29T06:18:13.908Z,19.00
2022-08-29T06:19:36.372Z,19.10
2022-08-29T06:20:58.422Z,19.10
2022-08-29T06:22:22.356Z,19.20
2022-08-29T06:23:45.908Z,19.30
2022-08-29T06:25:28.006Z,19.40
2022-08-29T06:26:50.585Z,19.50
2022-08-29T06:28:19.713Z,19.50
2022-08-29T06:29:46.057Z,19.40
2022-08-29T06:31:20.955Z,19.30
2022-08-29T06:32:43.231Z,19.20
2022-08-29T06:34:06.894Z,19.10
2022-08-29T06:35:28.979Z,19.10
2022-08-29T06:36:51.390Z,19.10
2022-08-29T06:38:14.250Z,19.10
2022-08-29T06:39:36.622Z,19.10
2022-08-29T06:41:03.977Z,19.10
2022-08-29T06:42:28.635Z,19.10
2022-08-29T06:43:51.601Z,19.20
2022-08-29T06:45:13.780Z,19.20
2022-08-29T06:46:38.761Z,19.20
2022-08-29T06:48:00.943Z,19.20
2022-08-29T06:49:24.486Z,19.20
2022-08-29T06:50:46.556Z,19.20
2022-08-29T06:52:08.663Z,19.20
2022-08-29T06:53:32.109Z,19.20
2022-08-29T06:54:54.850Z,19.20
2022-08-29T06:56:17.256Z,19.20
2022-08-29T06:57:44.494Z,19.20
2022-08-29T06:59:07.878Z,19.10
2022-08-29T07:00:30.223Z,19.10
2022-08-29T07:01:53.085Z,19.10
2022-08-29T07:03:15.444Z,19.10
2022-08-29T07:04:37.576Z,19.00
2022-08-29T07:06:00.069Z,19.00
2022-08-29T07:07:22.157Z,19.00
2022-08-29T07:08:55.494Z,19.10
2022-08-29T07:10:22.769Z,19.10
2022-08-29T07:11:45.368Z,19.10
2022-08-29T07:13:07.836Z,19.10
2022-08-29T07:14:29.957Z,19.10
2022-08-29T07:15:52.241Z,19.10
2022-08-29T07:17:25.880Z,19.10
2022-08-29T07:18:48.401Z,19.20
2022-08-29T07:20:10.906Z,19.30
2022-08-29T07:21:33.203Z,19.40
2022-08-29T07:22:55.737Z,19.60
2022-08-29T07:24:18.971Z,19.80
2022-08-29T07:25:43.873Z,19.80
2022-08-29T07:27:05.979Z,19.90
2022-08-29T07:28:30.820Z,20.00
2022-08-29T07:29:56.071Z,20.10
2022-08-29T07:31:18.859Z,20.30
2022-08-29T07:32:43.273Z,20.40
2022-08-29T07:34:06.615Z,20.30
2022-08-29T07:35:30.857Z,20.20
2022-08-29T07:36:53.142Z,20.10
2022-08-29T07:38:15.545Z,20.00
2022-08-29T07:39:38.243Z,19.90
2022-08-29T07:41:02.800Z,19.90
2022-08-29T07:42:24.977Z,19.90
2022-08-29T07:43:47.131Z,20.00
2022-08-29T07:45:11.274Z,20.00
2022-08-29T07:46:33.943Z,20.00
2022-08-29T07:47:56.122Z,19.90
2022-08-29T07:49:18.219Z,19.90
2022-08-29T07:50:42.806Z,19.90
2022-08-29T07:52:04.945Z,19.90
2022-08-29T07:53:27.167Z,20.00
2022-08-29T07:54:49.247Z,20.10
2022-08-29T07:56:16.826Z,20.10
2022-08-29T07:57:39.197Z,20.20
2022-08-29T07:59:02.617Z,20.10
2022-08-29T08:00:25.023Z,20.10
2022-08-29T08:01:47.844Z,20.10
2022-08-29T08:03:11.161Z,20.20
2022-08-29T08:04:33.331Z,20.30
2022-08-29T08:05:57.055Z,20.30
2022-08-29T08:07:19.150Z,20.40
2022-08-29T08:08:41.504Z,20.50
2022-08-29T08:10:04.771Z,20.40
2022-08-29T08:11:27.559Z,20.30
2022-08-29T08:12:52.741Z,20.30
2022-08-29T08:14:15.837Z,20.30
2022-08-29T08:15:39.507Z,20.30
2022-08-29T08:17:01.675Z,20.40
2022-08-29T08:18:25.215Z,20.50
2022-08-29T08:19:47.545Z,20.50
2022-08-29T08:21:10.549Z,20.50
2022-08-29T08:22:32.672Z,20.40
2022-08-29T08:23:55.157Z,20.50
2022-08-29T08:25:17.388Z,20.70
2022-08-29T08:26:47.170Z,20.70
2022-08-29T08:28:09.613Z,20.80
2022-08-29T08:29:31.694Z,20.80
2022-08-29T08:30:53.912Z,20.80
2022-08-29T08:32:16.085Z,20.80
2022-08-29T08:33:38.980Z,20.80
2022-08-29T08:35:01.793Z,20.80
2022-08-29T08:36:31.122Z,20.90
2022-08-29T08:37:53.530Z,21.00
2022-08-29T08:39:15.834Z,21.00
2022-08-29T08:41:17.794Z,21.10
2022-08-29T08:42:44.860Z,21.10
2022-08-29T08:44:21.250Z,21.20
2022-08-29T08:45:44.614Z,21.20
2022-08-29T08:47:10.712Z,21.20
2022-08-29T08:48:38.728Z,21.30
2022-08-29T08:50:33.316Z,21.30
2022-08-29T08:52:00.574Z,21.30
2022-08-29T08:53:48.520Z,21.60
2022-08-29T08:55:36.746Z,21.40
2022-08-29T08:57:07.984Z,21.40
2022-08-29T08:58:36.710Z,21.50
2022-08-29T08:59:59.380Z,21.50
2022-08-29T09:01:45.327Z,21.70
2022-08-29T09:03:39.250Z,21.80
2022-08-29T09:05:25.884Z,22.00
2022-08-29T09:06:59.635Z,22.10
2022-08-29T09:08:42.796Z,22.10
2022-08-29T09:10:30.355Z,22.00
2022-08-29T09:12:08.306Z,22.00
2022-08-29T09:14:20.547Z,22.20
2022-08-29T09:15:45.846Z,22.30
2022-08-29T09:17:13.508Z,22.30
2022-08-29T09:18:39.689Z,22.10
2022-08-29T09:20:02.098Z,22.00
2022-08-29T09:21:40.772Z,22.00
2022-08-29T09:23:24.964Z,22.00
2022-08-29T09:25:08.733Z,21.70
2022-08-29T09:26:30.898Z,21.60
2022-08-29T09:27:53.601Z,21.40
2022-08-29T09:29:20.905Z,21.30
2022-08-29T09:30:46.292Z,21.40
2022-08-29T09:32:12.189Z,21.60
2022-08-29T09:33:44.020Z,21.70
2022-08-29T09:35:29.120Z,21.80
2022-08-29T09:36:53.396Z,21.80
2022-08-29T09:38:18.216Z,21.90
2022-08-29T09:39:54.775Z,22.10
2022-08-29T09:41:28.342Z,22.50
2022-08-29T09:43:02.712Z,22.80
2022-08-29T09:44:31.545Z,22.90
2022-08-29T09:46:23.306Z,22.90
2022-08-29T09:47:45.543Z,22.90
2022-08-29T09:49:11.628Z,22.90
2022-08-29T09:50:33.779Z,22.80
2022-08-29T09:52:14.852Z,22.70
2022-08-29T09:53:37.032Z,22.50
2022-08-29T09:55:18.669Z,22.40
2022-08-29T09:57:01.429Z,22.60
2022-08-29T09:58:24.333Z,22.70
2022-08-29T09:59:50.162Z,22.80
2022-08-29T10:01:19.115Z,22.80
2022-08-29T10:02:56.462Z,22.90
2022-08-29T10:04:37.734Z,22.90
2022-08-29T10:06:16.375Z,22.80
2022-08-29T10:07:50.125Z,22.70
2022-08-29T10:09:26.288Z,22.70
2022-08-29T10:10:54.758Z,22.70
2022-08-29T10:12:28.394Z,22.80
2022-08-29T10:13:53.308Z,22.90
2022-08-29T10:15:49.966Z,22.90
2022-08-29T10:17:47.645Z,23.00
2022-08-29T10:19:23.114Z,22.90
2022-08-29T10:21:07.698Z,22.70
2022-08-29T10:22:33.232Z,22.60
2022-08-29T10:23:59.725Z,22.50
2022-08-29T10:25:35.305Z,22.40
2022-08-29T10:27:51.651Z,22.20
2022-08-29T10:29:19.180Z,22.00
2022-08-29T10:30:49.416Z,22.00
2022-08-29T10:32:19.950Z,22.10
2022-08-29T10:34:02.995Z,22.10
2022-08-29T10:35:29.790Z,22.20
2022-08-29T10:37:05.819Z,22.10
2022-08-29T10:38:46.677Z,22.10
2022-08-29T10:40:43.406Z,22.10
2022-08-29T10:42:12.275Z,21.90
2022-08-29T10:44:00.288Z,21.90
2022-08-29T10:45:50.673Z,21.90
2022-08-29T10:47:29.129Z,21.90
2022-08-29T10:49:25.763Z,22.10
2022-08-29T10:50:58.775Z,22.20
2022-08-29T10:52:39.680Z,22.30
2022-08-29T10:54:26.479Z,22.20
2022-08-29T10:56:07.019Z,22.10
2022-08-29T10:57:47.710Z,22.00
2022-08-29T10:59:09.758Z,21.90
2022-08-29T11:00:59.959Z,21.90
2022-08-29T11:02:38.869Z,21.80
2022-08-29T11:04:18.857Z,21.90
2022-08-29T11:05:49.257Z,22.00
2022-08-29T11:07:36.768Z,22.10
2022-08-29T11:09:30.721Z,22.20
2022-08-29T11:10:53.439Z,22.30
2022-08-29T11:12:35.423Z,22.20
2022-08-29T11:14:06.435Z,22.10
2022-08-29T11:15:39.257Z,22.10
2022-08-29T11:17:04.377Z,22.10
2022-08-29T11:18:36.720Z,22.10
2022-08-29T11:20:20.581Z,22.20
2022-08-29T11:22:10.104Z,22.10
2022-08-29T11:23:40.370Z,21.90
2022-08-29T11:25:13.222Z,21.80
2022-08-29T11:27:01.264Z,21.80
2022-08-29T11:29:07.264Z,21.80
2022-08-29T11:30:44.901Z,21.80
2022-08-29T11:32:23.832Z,21.60
2022-08-29T11:33:55.775Z,21.60
2022-08-29T11:35:44.985Z,21.50
2022-08-29T11:37:53.266Z,21.40
2022-08-29T11:39:18.474Z,21.10
2022-08-29T11:42:51.029Z,20.90
2022-08-29T11:44:25.101Z,21.00
2022-08-29T11:45:58.419Z,21.20
2022-08-29T11:47:40.530Z,21.40
2022-08-29T11:49:25.279Z,21.50
2022-08-29T11:50:49.146Z,21.50
2022-08-29T11:52:11.331Z,21.60
2022-08-29T11:53:37.612Z,21.70
2022-08-29T11:55:27.108Z,21.70
2022-08-29T11:56:49.928Z,21.60
2022-08-29T11:58:14.683Z,21.60
2022-08-29T11:59:48.974Z,21.60
2022-08-29T12:01:32.428Z,21.60
2022-08-29T12:02:54.925Z,21.70
2022-08-29T12:04:56.286Z,21.70
2022-08-29T12:06:31.308Z,21.80
2022-08-29T12:08:14.393Z,22.00
2022-08-29T12:09:56.380Z,22.20
2022-08-29T12:11:19.107Z,22.00
2022-08-29T12:12:51.497Z,21.90
2022-08-29T12:14:37.791Z,21.70
2022-08-29T12:16:09.275Z,21.60
2022-08-29T12:17:58.198Z,21.50
2022-08-29T12:19:45.747Z,21.50
2022-08-29T12:21:32.814Z,21.40
2022-08-29T12:23:09.246Z,21.30
2022-08-29T12:24:41.872Z,21.30
2022-08-29T12:26:25.484Z,21.40
2022-08-29T12:28:25.979Z,21.40
2022-08-29T12:29:48.465Z,21.50
2022-08-29T12:31:25.845Z,21.70
2022-08-29T12:33:04.344Z,21.80
2022-08-29T12:34:35.994Z,21.80
2022-08-29T12:36:18.925Z,21.70
2022-08-29T12:38:04.364Z,21.70
2022-08-29T12:39:58.783Z,21.80
2022-08-29T12:41:32.598Z,22.00
2022-08-29T12:43:03.450Z,22.10
2022-08-29T12:44:41.394Z,22.10
2022-08-29T12:46:11.174Z,22.10
2022-08-29T12:47:45.297Z,22.20
2022-08-29T12:49:30.093Z,22.30
2022-08-29T12:50:53.809Z,22.50
2022-08-29T12:52:25.413Z,22.50
2022-08-29T12:53:49.974Z,22.30
2022-08-29T12:55:29.024Z,22.10
2022-08-29T12:56:52.214Z,22.10
2022-08-29T12:58:29.750Z,22.10
2022-08-29T12:59:54.260Z,22.00
2022-08-29T13:01:28.876Z,21.80
2022-08-29T13:03:19.115Z,21.70
2022-08-29T13:04:43.911Z,21.50
2022-08-29T13:06:12.371Z,21.40
2022-08-29T13:07:34.575Z,21.30
2022-08-29T13:08:57.663Z,21.30
2022-08-29T13:10:19.698Z,21.30
2022-08-29T13:11:41.812Z,21.30
2022-08-29T13:13:11.747Z,21.40
2022-08-29T13:14:36.021Z,21.40
2022-08-29T13:16:01.513Z,21.50
2022-08-29T13:17:40.062Z,21.60
2022-08-29T13:19:11.168Z,21.80
2022-08-29T13:20:46.064Z,21.80
2022-08-29T13:22:12.400Z,21.70
2022-08-29T13:23:45.770Z,21.70
2022-08-29T13:25:08.257Z,21.80
2022-08-29T13:26:34.804Z,21.90
2022-08-29T13:28:01.629Z,22.00
2022-08-29T13:29:39.002Z,21.90
2022-08-29T13:31:21.495Z,21.70
2022-08-29T13:32:50.249Z,21.70
2022-08-29T13:34:20.636Z,21.70
2022-08-29T13:35:43.813Z,21.70
2022-08-29T13:37:29.059Z,21.60
2022-08-29T13:39:15.599Z,21.60
2022-08-29T13:40:49.438Z,21.60
2022-08-29T13:42:19.727Z,21.50
2022-08-29T13:43:46.005Z,21.60
2022-08-29T13:45:10.449Z,21.70
2022-08-29T13:46:32.639Z,21.70
2022-08-29T13:48:19.017Z,21.70
2022-08-29T13:49:41.497Z,21.80
2022-08-29T13:51:06.713Z,21.80
2022-08-29T13:52:31.980Z,21.80
2022-08-29T13:53:54.781Z,21.70
2022-08-29T13:55:16.962Z,21.70
2022-08-29T13:56:39.514Z,21.70
2022-08-29T13:58:01.881Z,21.70
2022-08-29T13:59:27.198Z,21.50
2022-08-29T14:00:50.178Z,21.40
2022-08-29T14:02:15.244Z,21.30
2022-08-29T14:03:38.137Z,21.30
2022-08-29T14:05:00.437Z,21.30
2022-08-29T14:06:25.209Z,21.30
2022-08-29T14:07:47.418Z,21.30
2022-08-29T14:09:09.871Z,21.20
2022-08-29T14:10:32.140Z,21.10
2022-08-29T14:11:54.448Z,20.90
2022-08-29T14:13:16.784Z,20.80
2022-08-29T14:14:38.873Z,20.70
2022-08-29T14:16:01.063Z,20.70
2022-08-29T14:17:24.837Z,20.80
2022-08-29T14:18:47.034Z,20.90
2022-08-29T14:20:10.081Z,20.90
2022-08-29T14:21:32.185Z,20.90
2022-08-29T14:22:54.363Z,20.90
2022-08-29T14:24:16.691Z,20.80
2022-08-29T14:25:38.748Z,20.80
2022-08-29T14:27:02.763Z,20.80
2022-08-29T14:28:24.891Z,20.90
2022-08-29T14:29:47.486Z,21.10
2022-08-29T14:31:09.963Z,21.20
2022-08-29T14:32:32.085Z,21.20
2022-08-29T14:33:54.235Z,21.20
2022-08-29T14:35:26.201Z,21.00
2022-08-29T14:36:49.825Z,20.80
2022-08-29T14:38:11.899Z,20.70
2022-08-29T14:39:34.085Z,20.50
2022-08-29T14:40:56.179Z,20.30
2022-08-29T14:42:18.543Z,20.40
2022-08-29T14:43:40.749Z,20.40
2022-08-29T14:45:02.996Z,20.50
2022-08-29T14:46:26.903Z,20.40
2022-08-29T14:47:49.303Z,20.40
2022-08-29T14:49:11.484Z,20.40
2022-08-29T14:50:33.651Z,20.40
2022-08-29T14:51:55.783Z,20.40
2022-08-29T14:53:17.866Z,20.40
2022-08-29T14:54:39.930Z,20.30
2022-08-29T14:56:02.287Z,20.20
2022-08-29T14:57:24.439Z,20.10
2022-08-29T14:58:46.535Z,20.10
2022-08-29T15:00:13.211Z,20.10
2022-08-29T15:01:35.563Z,20.10
2022-08-29T15:02:58.200Z,20.10
2022-08-29T15:04:34.814Z,20.10
2022-08-29T15:05:59.427Z,20.00
2022-08-29T15:07:21.565Z,19.90
2022-08-29T15:08:43.851Z,19.80
2022-08-29T15:10:07.453Z,19.70
2022-08-29T15:11:31.151Z,19.80
2022-08-29T15:12:53.570Z,19.70
2022-08-29T15:14:15.704Z,19.70
2022-08-29T15:15:37.907Z,19.70
2022-08-29T15:17:00.248Z,19.70
2022-08-29T15:18:59.508Z,19.80
2022-08-29T15:21:49.682Z,19.70
2022-08-29T15:23:13.102Z,19.70
2022-08-29T15:24:36.341Z,19.60
2022-08-29T15:25:58.389Z,19.50
2022-08-29T15:27:27.061Z,19.40
2022-08-29T15:28:49.871Z,19.40
2022-08-29T15:30:13.082Z,19.40
2022-08-29T15:31:35.250Z,19.50
2022-08-29T15:32:57.587Z,19.50
2022-08-29T15:34:19.754Z,19.50
2022-08-29T15:35:42.185Z,19.60
2022-08-29T15:37:04.997Z,19.60
2022-08-29T15:38:27.107Z,19.60
2022-08-29T15:39:54.456Z,19.60
2022-08-29T15:41:16.963Z,19.60
2022-08-29T15:42:39.128Z,19.60
2022-08-29T15:44:03.144Z,19.50
2022-08-29T15:45:25.312Z,19.40
2022-08-29T15:46:50.408Z,19.40
2022-08-29T15:48:13.408Z,19.40
2022-08-29T15:49:37.075Z,19.40
2022-08-29T15:50:59.247Z,19.30
2022-08-29T15:52:21.752Z,19.30
2022-08-29T15:53:43.924Z,19.30
2022-08-29T15:55:07.119Z,19.30
2022-08-29T15:56:34.993Z,19.30
2022-08-29T15:57:57.209Z,19.30
2022-08-29T15:59:30.982Z,19.30
2022-08-29T16:01:05.457Z,19.30
2022-08-29T16:02:28.081Z,19.20
2022-08-29T16:03:50.303Z,19.20
2022-08-29T16:05:12.624Z,19.10
2022-08-29T16:06:35.098Z,19.00
2022-08-29T16:07:57.736Z,19.10
2022-08-29T16:09:20.166Z,19.00
2022-08-29T16:10:42.543Z,19.00
2022-08-29T16:12:04.907Z,19.00
2022-08-29T16:13:26.995Z,19.00
2022-08-29T16:15:09.003Z,19.00
2022-08-29T16:16:33.376Z,19.00
2022-08-29T16:17:55.483Z,19.00
2022-08-29T16:19:18.714Z,19.00
2022-08-29T16:20:41.601Z,18.90
2022-08-29T16:22:03.937Z,18.90
2022-08-29T16:23:26.177Z,18.90
2022-08-29T16:24:48.279Z,18.90
2022-08-29T16:26:10.424Z,18.90
2022-08-29T16:27:32.830Z,18.90
2022-08-29T16:28:54.912Z,18.90
2022-08-29T16:30:18.171Z,18.90
2022-08-29T16:31:40.714Z,18.90
2022-08-29T16:33:03.412Z,18.90
2022-08-29T16:34:27.674Z,18.90
2022-08-29T16:35:49.876Z,18.90
2022-08-29T16:37:12.074Z,18.80
2022-08-29T16:38:34.964Z,18.80
2022-08-29T16:39:57.136Z,18.80
2022-08-29T16:41:20.910Z,18.80
2022-08-29T16:42:55.161Z,18.80
2022-08-29T16:44:18.040Z,18.70
2022-08-29T16:45:40.176Z,18.60
2022-08-29T16:47:02.312Z,18.50
2022-08-29T16:48:24.519Z,18.50
2022-08-29T16:49:47.717Z,18.50
2022-08-29T16:51:10.540Z,18.40
2022-08-29T16:52:32.732Z,18.40
2022-08-29T16:53:54.993Z,18.40
2022-08-29T16:55:17.221Z,18.30
2022-08-29T16:56:39.805Z,18.30
2022-08-29T16:58:20.425Z,18.30
2022-08-29T16:59:45.732Z,18.20
2022-08-29T17:01:08.122Z,18.20
2022-08-29T17:02:30.457Z,18.20
2022-08-29T17:03:52.662Z,18.20
2022-08-29T17:05:14.937Z,18.20
2022-08-29T17:06:38.608Z,18.20
2022-08-29T17:08:00.619Z,18.20
2022-08-29T17:09:24.423Z,18.20
2022-08-29T17:10:46.668Z,18.20
2022-08-29T17:12:09.260Z,18.20
2022-08-29T17:13:32.703Z,18.20
2022-08-29T17:14:56.179Z,18.20
2022-08-29T17:16:19.397Z,18.10
2022-08-29T17:17:41.624Z,18.10
2022-08-29T17:19:06.512Z,18.10
2022-08-29T17:20:28.587Z,18.10
2022-08-29T17:21:51.055Z,18.10
2022-08-29T17:23:13.406Z,18.00
2022-08-29T17:24:35.550Z,18.00
2022-08-29T17:26:00.227Z,18.00
2022-08-29T17:27:24.824Z,18.00
2022-08-29T17:28:50.656Z,18.10
2022-08-29T17:30:12.878Z,18.10
2022-08-29T17:31:39.927Z,18.10
2022-08-29T17:33:02.133Z,18.20
2022-08-29T17:34:24.283Z,18.10
2022-08-29T17:35:46.425Z,18.10
2022-08-29T17:37:09.970Z,18.10
2022-08-29T17:38:32.980Z,18.10
2022-08-29T17:39:55.531Z,18.00
2022-08-29T17:41:21.694Z,18.00
2022-08-29T17:42:44.094Z,18.00
2022-08-29T17:44:07.934Z,18.00
2022-08-29T17:45:31.354Z,18.00
2022-08-29T17:46:53.667Z,18.00
2022-08-29T17:48:16.034Z,18.00
2022-08-29T17:49:38.249Z,17.90
2022-08-29T17:51:00.507Z,17.90
2022-08-29T17:52:22.587Z,18.00
2022-08-29T17:53:45.620Z,18.00
2022-08-29T17:55:08.484Z,18.00
2022-08-29T17:56:44.844Z,18.00
2022-08-29T17:58:07.159Z,18.00
2022-08-29T17:59:32.745Z,18.00
2022-08-29T18:00:54.985Z,18.00
2022-08-29T18:02:17.173Z,17.90
2022-08-29T18:03:39.631Z,17.90
2022-08-29T18:05:02.459Z,17.90
2022-08-29T18:06:25.700Z,17.90
2022-08-29T18:07:51.779Z,17.90
2022-08-29T18:09:14.805Z,17.90
2022-08-29T18:10:38.473Z,17.90
2022-08-29T18:12:00.603Z,17.90
2022-08-29T18:13:24.153Z,17.90
2022-08-29T18:14:47.402Z,17.90
2022-08-29T18:16:10.739Z,17.80
2022-08-29T18:17:33.918Z,17.90
2022-08-29T18:18:56.115Z,17.90
2022-08-29T18:20:21.483Z,17.80
2022-08-29T18:21:44.431Z,17.80
2022-08-29T18:23:06.679Z,17.90
2022-08-29T18:24:28.799Z,17.90
2022-08-29T18:25:50.929Z,17.90
2022-08-29T18:27:12.995Z,17.80
2022-08-29T18:28:35.463Z,17.80
2022-08-29T18:29:57.772Z,17.90
2022-08-29T18:31:20.302Z,17.90
2022-08-29T18:32:42.523Z,17.90
2022-08-29T18:34:05.783Z,17.90
2022-08-29T18:35:27.820Z,17.90
2022-08-29T18:36:50.176Z,17.90
2022-08-29T18:38:13.177Z,17.90
2022-08-29T18:39:35.339Z,17.90
2022-08-29T18:40:57.469Z,17.90